San Fermin Berria — EBVW — position and weather

sailwx.info

Track history (hours):
 
Tides and Currents Weather Stations Pressure Air Temp Water Temp Dewpoint Dewpoint Depression Visibility Wind Speed Wind Dir Waves Ship Positions

San Fermin Berria

Last reported at 2014-Sep-02 06:31 UTC. Time now 2014-Sep-02 21:36 UTC.
Position N 44°52' W 003°29'.

Length 30 m.

Type: Fishing. MMSI: 224114650.

Date/timePositionNaut miles runAvg speedWind from/ knotsBaromVisibWave heightAir tempDewpointWater temp
2014-Sep-02 06:31N 44°52' W 003°29'5 5.3
2014-Sep-02 05:29N 44°46' W 003°31'13 1.1
2014-Sep-01 17:15N 44°35' W 003°40'9 0.3
2014-Aug-31 07:25N 44°26' W 003°46'3 2.3
2014-Aug-31 06:08N 44°28' W 003°49'3 5.4
2014-Aug-31 05:31N 44°28' W 003°54'1 0.6
2014-Aug-31 04:31N 44°29' W 003°55'0 0.3
2014-Aug-31 03:30N 44°29' W 003°54'0 0.3
2014-Aug-31 02:12N 44°29' W 003°54'0 0.4
2014-Aug-31 01:33N 44°29' W 003°53'  
2014-Aug-27 20:33N 43°25' W 001°48'2 1.5
2014-Aug-27 19:33N 43°23' W 001°48'0 0.0
2014-Aug-27 18:33N 43°23' W 001°48'0 0.0
2014-Aug-27 17:33N 43°23' W 001°48'0 0.0
2014-Aug-27 16:33N 43°23' W 001°48'0 0.0
2014-Aug-27 15:33N 43°23' W 001°48'0 0.0
2014-Aug-27 14:33N 43°23' W 001°48'0 0.0
2014-Aug-27 13:33N 43°23' W 001°48'0 0.0
2014-Aug-27 12:33N 43°23' W 001°48'0 0.0
2014-Aug-27 11:33N 43°23' W 001°48'0 0.0
2014-Aug-27 10:33N 43°23' W 001°48'0 0.0
2014-Aug-27 09:33N 43°23' W 001°48'0 0.0
2014-Aug-27 08:33N 43°23' W 001°48'0 0.0
2014-Aug-27 07:33N 43°23' W 001°48'0 0.0
2014-Aug-27 06:33N 43°23' W 001°48'0 0.0
2014-Aug-27 05:33N 43°23' W 001°48'0 0.0
2014-Aug-27 04:33N 43°23' W 001°48'0 0.0
2014-Aug-27 03:33N 43°23' W 001°48'0 0.0
2014-Aug-27 02:33N 43°23' W 001°48'0 0.0
2014-Aug-27 01:33N 43°23' W 001°48'0 0.0
2014-Aug-27 00:33N 43°23' W 001°48'0 0.0
2014-Aug-26 23:33N 43°23' W 001°48'0 0.0
2014-Aug-26 22:33N 43°23' W 001°48'0 0.0
2014-Aug-26 21:33N 43°23' W 001°48'0 0.0
2014-Aug-26 20:33N 43°23' W 001°48'0 0.0
2014-Aug-26 19:33N 43°23' W 001°48'0 0.0
2014-Aug-26 18:33N 43°23' W 001°48'0 0.0
2014-Aug-26 17:33N 43°23' W 001°48'0 0.0
2014-Aug-26 16:33N 43°23' W 001°48'0 0.0
2014-Aug-26 15:33N 43°23' W 001°48'0 0.0
2014-Aug-26 14:33N 43°23' W 001°48'0 0.0
2014-Aug-26 13:33N 43°23' W 001°48'0 0.0
2014-Aug-26 12:33N 43°23' W 001°48'0 0.0
2014-Aug-26 11:33N 43°23' W 001°48'1 1.3
2014-Aug-26 10:33N 43°24' W 001°48'  
Track history (hours):
 
Tides and Currents Weather Stations Pressure Air Temp Water Temp Dewpoint Dewpoint Depression Visibility Wind Speed Wind Dir Waves Ship Positions

San Fermin Berria

Last reported at 2014-Sep-02 06:31 UTC. Time now 2014-Sep-02 21:36 UTC.
Position N 44°52' W 003°29'.

Length 30 m.

Type: Fishing. MMSI: 224114650.

Date/timePositionNaut miles runAvg speedWind from/ knotsBaromVisibWave heightAir tempDewpointWater temp
2014-Sep-02 06:31N 44°52' W 003°29'5 5.3
2014-Sep-02 05:29N 44°46' W 003°31'13 1.1
2014-Sep-01 17:15N 44°35' W 003°40'9 0.3
2014-Aug-31 07:25N 44°26' W 003°46'3 2.3
2014-Aug-31 06:08N 44°28' W 003°49'3 5.4
2014-Aug-31 05:31N 44°28' W 003°54'1 0.6
2014-Aug-31 04:31N 44°29' W 003°55'0 0.3
2014-Aug-31 03:30N 44°29' W 003°54'0 0.3
2014-Aug-31 02:12N 44°29' W 003°54'0 0.4
2014-Aug-31 01:33N 44°29' W 003°53'  
2014-Aug-27 20:33N 43°25' W 001°48'2 1.5
2014-Aug-27 19:33N 43°23' W 001°48'0 0.0
2014-Aug-27 18:33N 43°23' W 001°48'0 0.0
2014-Aug-27 17:33N 43°23' W 001°48'0 0.0
2014-Aug-27 16:33N 43°23' W 001°48'0 0.0
2014-Aug-27 15:33N 43°23' W 001°48'0 0.0
2014-Aug-27 14:33N 43°23' W 001°48'0 0.0
2014-Aug-27 13:33N 43°23' W 001°48'0 0.0
2014-Aug-27 12:33N 43°23' W 001°48'0 0.0
2014-Aug-27 11:33N 43°23' W 001°48'0 0.0
2014-Aug-27 10:33N 43°23' W 001°48'0 0.0
2014-Aug-27 09:33N 43°23' W 001°48'0 0.0
2014-Aug-27 08:33N 43°23' W 001°48'0 0.0
2014-Aug-27 07:33N 43°23' W 001°48'0 0.0
2014-Aug-27 06:33N 43°23' W 001°48'0 0.0
2014-Aug-27 05:33N 43°23' W 001°48'0 0.0
2014-Aug-27 04:33N 43°23' W 001°48'0 0.0
2014-Aug-27 03:33N 43°23' W 001°48'0 0.0
2014-Aug-27 02:33N 43°23' W 001°48'0 0.0
2014-Aug-27 01:33N 43°23' W 001°48'0 0.0
2014-Aug-27 00:33N 43°23' W 001°48'0 0.0
2014-Aug-26 23:33N 43°23' W 001°48'0 0.0
2014-Aug-26 22:33N 43°23' W 001°48'0 0.0
2014-Aug-26 21:33N 43°23' W 001°48'0 0.0
2014-Aug-26 20:33N 43°23' W 001°48'0 0.0
2014-Aug-26 19:33N 43°23' W 001°48'0 0.0
2014-Aug-26 18:33N 43°23' W 001°48'0 0.0
2014-Aug-26 17:33N 43°23' W 001°48'0 0.0
2014-Aug-26 16:33N 43°23' W 001°48'0 0.0
2014-Aug-26 15:33N 43°23' W 001°48'0 0.0
2014-Aug-26 14:33N 43°23' W 001°48'0 0.0
2014-Aug-26 13:33N 43°23' W 001°48'0 0.0
2014-Aug-26 12:33N 43°23' W 001°48'0 0.0
2014-Aug-26 11:33N 43°23' W 001°48'1 1.3
2014-Aug-26 10:33N 43°24' W 001°48'  

Dump ship's entire track history